Wind Gültig von: 16-02-2020 12:00 bis: 17-02-2020 04:00 Warnung für: Wind Gefahrenstufe: Orange info button


METAR-Meldungen aus der Umgebung


Warning: A non-numeric value encountered in /homepages/1/d50633195/htdocs/bad-muskau-wetter/weather28/metar/metarDisplay.php on line 168

Warning: A non-numeric value encountered in /homepages/1/d50633195/htdocs/bad-muskau-wetter/weather28/metar/metarDisplay.php on line 168

Warning: A non-numeric value encountered in /homepages/1/d50633195/htdocs/bad-muskau-wetter/weather28/metar/metarDisplay.php on line 168

Warning: A non-numeric value encountered in /homepages/1/d50633195/htdocs/bad-muskau-wetter/weather28/metar/metarDisplay.php on line 168
   
EDDC - Dresden/Klotzsch, Germany
Entfernung von der Station bis: SW 82 km
Aktualisierung: 17-02-2020 12:50
Klar  
Klar  
   Wind: WSW 16.7 km/h
Wind: WSW 16.7 km/h
Temperatur: 10°C
Gefühlt: 8°C
Taupunkt: 2°C
Luftfeuchte: 58%
Luftdruck: 1015 hPa
Sichtbarkeit: More than 10 km
Bewölkung: Klar
EDDC 171150Z 24009KT 210V280 CAVOK 10/02 Q1015 NOSIG
EPZG - Zielona Gora, Poland
Entfernung von der Station bis: NO 99 km
Aktualisierung: 17-02-2020 13:00
Klar  
Klar  
   Wind: WSW 27.8 km/h
Wind: WSW 27.8 km/h
Temperatur: 12°C
Taupunkt: 1°C
Luftfeuchte: 47%
Luftdruck: 1014 hPa
Sichtbarkeit: More than 10 km
Bewölkung: Klar
EPZG 171200Z 24015KT 210V270 CAVOK 12/01 Q1014
ETSH - Holzdorf, Germany
Entfernung von der Station bis: WNW 110 km
Aktualisierung: 17-02-2020 12:20
Stark bewölkt  
Stark bewölkt  
   Wind: WSW 22.2 km/h
Wind: WSW 22.2 km/h
Temperatur: 10°C
Gefühlt: 7°C
Taupunkt: 1°C
Luftfeuchte: 54%
Luftdruck: 1014 hPa
Bewölkt: Stark bewölkt
Sichtbarkeit: More than 10 km
Bewölkung: Stark bewölkt 8000 ft
ETSH 171120Z 24012KT 9999 BKN080 10/01 Q1014 BLU BLU
EDDB - Berlin/Schonefel, Germany
Entfernung von der Station bis: NW 124 km
Aktualisierung: 17-02-2020 12:50
leicht bewölkt  
leicht bewölkt  
   Wind: WSW 33.3 km/h
Wind: WSW 33.3 km/h
Temperatur: 10°C
Gefühlt: 6°C
Taupunkt: 3°C
Luftfeuchte: 62%
Luftdruck: 1013 hPa
Bewölkt: leicht bewölkt
Sichtbarkeit: More than 10 km
Bewölkung: leicht bewölkt 3800 ft
EDDB 171150Z 24018KT 9999 FEW038 10/03 Q1013 TEMPO 24015G30KT
EDDT - Berlin/Tegel (fa, Germany
Entfernung von der Station bis: NW 149 km
Aktualisierung: 17-02-2020 12:50
leicht bewölkt  
leicht bewölkt  
   Wind: WSW 37 km/h
Wind: WSW 37 km/h
Temperatur: 11°C
Taupunkt: 1°C
Luftfeuchte: 50%
Luftdruck: 1012 hPa
Bewölkt: leicht bewölkt
Sichtbarkeit: More than 10 km
Bewölkung: leicht bewölkt 4000 ft
EDDT 171150Z 24020KT 9999 FEW040 11/01 Q1012 TEMPO 24015G30KT
LKVO - Vodochody, Czech Republic
Entfernung von der Station bis: S 149 km
Aktualisierung: 17-02-2020 13:00
Stark bewölkt  
Stark bewölkt  
   Wind: WSW 20.4 km/h
Wind: WSW 20.4 km/h
Temperatur: 12°C
Taupunkt: 3°C
Luftfeuchte: 54%
Luftdruck: 1016 hPa
Bewölkt: Stark bewölkt
Sichtbarkeit: More than 10 km
Bewölkung: leicht bewölkt 3100 ft,
Stark bewölkt 6800 ft
LKVO 171200Z 25011KT 9999 FEW031 BKN068 12/03 Q1016
EPWR - Wroclaw/Strachow, Poland
Entfernung von der Station bis: OSO 157 km
Aktualisierung: 17-02-2020 13:00
Klar  
Klar  
   Wind: WNW 14.8 km/h
Wind: WNW 14.8 km/h
Temperatur: 12°C
Taupunkt: 4°C
Luftfeuchte: 58%
Luftdruck: 1015 hPa
Sichtbarkeit: More than 10 km
Bewölkung: Klar
EPWR 171200Z 30008KT CAVOK 12/04 Q1015
LKKB - Kbely, Czech Republic
Entfernung von der Station bis: S 159 km
Aktualisierung: 17-02-2020 13:00
Klar  
Klar  
   Wind: WSW 18.5 km/h
Wind: WSW 18.5 km/h
Temperatur: 11°C
Taupunkt: 2°C
Luftfeuchte: 54%
Luftdruck: 1016 hPa
Sichtbarkeit: More than 10 km
Bewölkung: Klar
LKKB 171200Z 25010KT CAVOK 11/02 Q1016 NOSIG
 

Script entwickelt von  Saratoga-weather.org Angepasst für das Template von  Weerstation Leuven